Time;durP1;ratioP1;P1;durP2;ratioP2;P2;SDS_P1;SDS_P2;PMS_P1;PMS_P2;Temp;Humidity;BMP_temperature;BMP_pressure;BME280_temperature;BME280_humidity;BME280_pressure;Samples;Min_cycle;Max_cycle;Signal;HPM_P1;HPM_P2
2023/07/15 00:01:19;;;;;;;4.90;1.80;;;;;;;;;;5017446;28;20409;-87
2023/07/15 00:03:46;;;;;;;2.93;1.97;;;;;;;;;;5017163;28;20467;-78
2023/07/15 00:06:15;;;;;;;3.33;2.30;;;;;;;;;;5035061;28;20464;-80
2023/07/15 00:08:40;;;;;;;4.17;2.87;;;;;;;;;;5034812;28;20434;-79
2023/07/15 00:11:06;;;;;;;3.93;2.90;;;;;;;;;;5036860;28;20413;-79
2023/07/15 00:13:32;;;;;;;3.37;1.80;;;;;;;;;;5035316;28;20462;-77
2023/07/15 00:15:58;;;;;;;3.47;2.07;;;;;;;;;;5018449;28;20239;-88
2023/07/15 00:18:25;;;;;;;5.80;2.37;;;;;;;;;;5034686;28;20413;-87
2023/07/15 00:20:51;;;;;;;2.27;1.73;;;;;;;;;;5036786;28;20425;-92
2023/07/15 00:23:19;;;;;;;3.17;2.00;;;;;;;;;;5019092;28;20414;-92
2023/07/15 00:25:45;;;;;;;3.20;1.80;;;;;;;;;;5035623;28;20428;-92
2023/07/15 00:28:11;;;;;;;9.40;2.90;;;;;;;;;;5034726;28;20405;-78
2023/07/15 00:30:37;;;;;;;4.50;2.17;;;;;;;;;;5034502;28;20198;-85
2023/07/15 00:33:03;;;;;;;2.80;1.93;;;;;;;;;;5035086;28;20455;-78
2023/07/15 00:35:30;;;;;;;5.33;2.40;;;;;;;;;;5029377;28;20465;-93
2023/07/15 00:37:56;;;;;;;2.27;1.57;;;;;;;;;;5015320;28;20540;-80
2023/07/15 00:40:22;;;;;;;3.07;2.30;;;;;;;;;;5014628;28;20517;-78
2023/07/15 00:43:07;;;;;;;6.70;2.53;;;;;;;;;;5015108;28;20969;-81
2023/07/15 00:45:33;;;;;;;3.57;1.93;;;;;;;;;;4998026;28;20422;-92
2023/07/15 00:48:00;;;;;;;4.07;2.10;;;;;;;;;;5014403;28;20431;-85
2023/07/15 00:50:25;;;;;;;3.73;2.70;;;;;;;;;;5014144;28;20181;-79
2023/07/15 00:52:51;;;;;;;3.97;2.27;;;;;;;;;;5013934;28;20453;-79
2023/07/15 00:55:18;;;;;;;4.00;2.73;;;;;;;;;;5013975;28;20188;-85
2023/07/15 00:57:44;;;;;;;3.10;2.53;;;;;;;;;;5013876;28;20439;-83
2023/07/15 01:00:10;;;;;;;3.13;2.00;;;;;;;;;;5014435;28;20444;-90
2023/07/15 01:02:37;;;;;;;2.53;2.10;;;;;;;;;;5015583;28;20409;-89
2023/07/15 01:05:03;;;;;;;4.57;2.30;;;;;;;;;;5014110;28;20516;-78
2023/07/15 01:07:35;;;;;;;2.67;2.00;;;;;;;;;;5014023;28;20584;-85
2023/07/15 01:10:01;;;;;;;3.60;1.90;;;;;;;;;;5015037;28;20902;-80
2023/07/15 01:12:27;;;;;;;4.57;2.23;;;;;;;;;;5014161;28;20418;-79
2023/07/15 01:14:53;;;;;;;3.20;1.77;;;;;;;;;;5014659;28;20492;-79
2023/07/15 01:17:19;;;;;;;3.93;2.40;;;;;;;;;;4996295;28;20504;-79
2023/07/15 01:19:49;;;;;;;3.90;1.67;;;;;;;;;;4997249;28;20175;-91
2023/07/15 01:22:15;;;;;;;5.10;2.00;;;;;;;;;;4997581;28;20500;-78
2023/07/15 01:24:41;;;;;;;5.40;2.33;;;;;;;;;;5014297;28;20460;-80
2023/07/15 01:27:08;;;;;;;4.33;2.50;;;;;;;;;;5013111;28;20598;-83
2023/07/15 01:29:34;;;;;;;3.63;2.20;;;;;;;;;;4995704;28;20430;-81
2023/07/15 01:32:00;;;;;;;4.23;2.80;;;;;;;;;;5013523;28;20879;-80
2023/07/15 01:34:26;;;;;;;4.43;2.10;;;;;;;;;;5013683;28;20469;-82
2023/07/15 01:36:52;;;;;;;4.10;2.43;;;;;;;;;;5014768;28;20418;-91
2023/07/15 01:39:18;;;;;;;3.63;2.53;;;;;;;;;;5015086;28;20974;-79
2023/07/15 01:41:44;;;;;;;4.70;1.93;;;;;;;;;;5014345;28;20452;-82
2023/07/15 01:44:10;;;;;;;4.13;2.20;;;;;;;;;;5014810;28;20924;-88
2023/07/15 01:46:39;;;;;;;2.93;2.27;;;;;;;;;;5014171;28;20883;-88
2023/07/15 01:49:05;;;;;;;2.43;1.80;;;;;;;;;;5013123;28;20429;-83
2023/07/15 01:51:30;;;;;;;3.17;2.47;;;;;;;;;;5013106;28;20410;-80
2023/07/15 01:53:56;;;;;;;3.80;1.87;;;;;;;;;;5013012;28;20507;-80
2023/07/15 01:56:22;;;;;;;5.43;2.30;;;;;;;;;;5018381;28;20570;-81
2023/07/15 01:58:48;;;;;;;3.03;1.50;;;;;;;;;;5032711;28;20692;-79
2023/07/15 02:01:14;;;;;;;2.97;2.00;;;;;;;;;;5032633;28;20182;-83
2023/07/15 02:03:40;;;;;;;6.30;2.33;;;;;;;;;;5032505;28;20538;-82
2023/07/15 02:06:06;;;;;;;2.97;1.60;;;;;;;;;;5032727;28;20171;-79
2023/07/15 02:08:32;;;;;;;2.83;2.40;;;;;;;;;;5032681;28;20278;-81
2023/07/15 02:10:58;;;;;;;4.00;1.93;;;;;;;;;;5032864;28;20413;-78
2023/07/15 02:13:25;;;;;;;4.00;2.30;;;;;;;;;;5032421;28;20472;-83
2023/07/15 02:15:51;;;;;;;3.20;2.00;;;;;;;;;;5033000;28;20793;-80
2023/07/15 02:18:17;;;;;;;7.10;2.20;;;;;;;;;;5032595;28;20413;-81
2023/07/15 02:20:43;;;;;;;4.33;2.70;;;;;;;;;;5031228;28;20823;-85
2023/07/15 02:23:11;;;;;;;1.97;1.77;;;;;;;;;;5017414;28;20416;-81
2023/07/15 02:25:37;;;;;;;3.57;2.50;;;;;;;;;;5031750;28;20177;-80
2023/07/15 02:28:03;;;;;;;4.70;2.47;;;;;;;;;;5031531;28;20409;-81
2023/07/15 02:30:28;;;;;;;3.30;2.00;;;;;;;;;;5031937;28;20424;-81
2023/07/15 02:32:55;;;;;;;5.87;2.63;;;;;;;;;;5031794;28;20810;-81
2023/07/15 02:35:21;;;;;;;4.37;2.20;;;;;;;;;;5032930;28;20424;-81
2023/07/15 02:37:50;;;;;;;7.67;1.93;;;;;;;;;;5032832;28;20408;-81
2023/07/15 02:40:17;;;;;;;4.33;1.73;;;;;;;;;;5032823;28;20411;-80
2023/07/15 02:42:43;;;;;;;4.27;2.10;;;;;;;;;;5032355;28;20416;-84
2023/07/15 02:45:10;;;;;;;2.30;1.40;;;;;;;;;;5032815;28;20424;-81
2023/07/15 02:47:39;;;;;;;3.90;1.13;;;;;;;;;;5032845;28;20428;-81
2023/07/15 02:50:06;;;;;;;4.00;1.70;;;;;;;;;;5032855;28;20405;-80
2023/07/15 02:52:35;;;;;;;4.17;2.23;;;;;;;;;;5032752;28;20413;-80
2023/07/15 02:55:05;;;;;;;2.90;1.50;;;;;;;;;;5032422;28;20541;-81
2023/07/15 02:57:34;;;;;;;4.60;2.00;;;;;;;;;;5014612;28;20420;-82
2023/07/15 03:00:00;;;;;;;4.23;2.10;;;;;;;;;;5021996;28;20934;-81
2023/07/15 03:02:28;;;;;;;2.00;1.50;;;;;;;;;;5052515;28;20492;-81
2023/07/15 03:04:54;;;;;;;3.27;1.40;;;;;;;;;;5052433;28;20803;-81
2023/07/15 03:07:20;;;;;;;4.37;2.27;;;;;;;;;;5052479;28;20515;-82
2023/07/15 03:09:46;;;;;;;2.40;1.30;;;;;;;;;;5052538;28;20916;-81
2023/07/15 03:12:12;;;;;;;3.40;1.87;;;;;;;;;;5052225;28;20400;-81
2023/07/15 03:14:38;;;;;;;5.10;2.07;;;;;;;;;;5052404;28;20547;-81
2023/07/15 03:17:05;;;;;;;3.20;2.23;;;;;;;;;;5115365;22;20450;-80
2023/07/15 03:19:32;;;;;;;2.93;2.10;;;;;;;;;;5034312;28;20459;-86
2023/07/15 03:21:58;;;;;;;4.87;2.70;;;;;;;;;;5052076;28;20431;-82
2023/07/15 03:24:25;;;;;;;3.50;2.10;;;;;;;;;;5034754;28;20426;-81
2023/07/15 03:26:51;;;;;;;4.20;1.73;;;;;;;;;;5055942;28;20506;-81
2023/07/15 03:29:17;;;;;;;3.63;2.50;;;;;;;;;;5056518;28;20407;-81
2023/07/15 03:31:43;;;;;;;3.43;2.40;;;;;;;;;;5056401;28;20423;-81
2023/07/15 03:34:09;;;;;;;5.30;2.33;;;;;;;;;;5056414;28;20472;-81
2023/07/15 03:36:38;;;;;;;4.20;1.70;;;;;;;;;;5056404;28;20650;-81
2023/07/15 03:39:05;;;;;;;3.50;1.97;;;;;;;;;;5056410;28;20181;-82
2023/07/15 03:41:30;;;;;;;6.50;2.67;;;;;;;;;;5038215;28;20893;-81
2023/07/15 03:43:57;;;;;;;2.67;1.80;;;;;;;;;;5038424;28;20578;-84
2023/07/15 03:46:26;;;;;;;5.77;2.10;;;;;;;;;;5056242;28;20201;-84
2023/07/15 03:48:52;;;;;;;4.50;1.83;;;;;;;;;;5055679;28;20413;-80
2023/07/15 03:51:18;;;;;;;5.33;2.60;;;;;;;;;;5056173;28;20925;-81
2023/07/15 03:53:44;;;;;;;3.70;2.27;;;;;;;;;;5056067;28;20610;-81
2023/07/15 03:56:09;;;;;;;4.10;1.90;;;;;;;;;;5037822;28;20438;-81
2023/07/15 03:58:35;;;;;;;5.40;2.30;;;;;;;;;;5056038;28;20168;-80
2023/07/15 04:01:01;;;;;;;4.07;1.93;;;;;;;;;;5055866;28;20193;-81
2023/07/15 04:03:29;;;;;;;5.10;2.20;;;;;;;;;;5038005;28;20263;-80
2023/07/15 04:05:55;;;;;;;3.73;1.63;;;;;;;;;;5055884;28;20184;-80
2023/07/15 04:08:21;;;;;;;3.57;1.83;;;;;;;;;;5055833;28;20491;-82
2023/07/15 04:10:47;;;;;;;2.30;1.30;;;;;;;;;;5037585;28;20177;-87
2023/07/15 04:13:13;;;;;;;4.87;2.17;;;;;;;;;;5055659;28;20180;-84
2023/07/15 04:15:39;;;;;;;4.43;2.03;;;;;;;;;;5055707;28;20827;-82
2023/07/15 04:18:05;;;;;;;4.50;2.10;;;;;;;;;;5055500;28;20453;-84
2023/07/15 04:20:31;;;;;;;5.30;2.00;;;;;;;;;;5055459;28;20462;-84
2023/07/15 04:23:00;;;;;;;5.67;2.00;;;;;;;;;;5038746;28;20416;-81
2023/07/15 04:25:26;;;;;;;2.50;1.43;;;;;;;;;;5054672;28;20423;-81
2023/07/15 04:27:52;;;;;;;2.37;1.70;;;;;;;;;;5055232;28;20413;-81
2023/07/15 04:30:18;;;;;;;4.77;2.30;;;;;;;;;;5055427;28;20170;-82
2023/07/15 04:32:44;;;;;;;3.30;2.27;;;;;;;;;;5055473;28;20907;-81
2023/07/15 04:35:09;;;;;;;3.33;2.60;;;;;;;;;;5055281;28;20212;-82
2023/07/15 04:37:38;;;;;;;3.47;2.47;;;;;;;;;;5032303;28;20583;-81
2023/07/15 04:40:04;;;;;;;2.93;1.70;;;;;;;;;;5035260;28;20268;-81
2023/07/15 04:42:30;;;;;;;3.17;1.90;;;;;;;;;;5034909;28;20845;-81
2023/07/15 04:44:56;;;;;;;4.43;2.90;;;;;;;;;;5034093;28;20428;-85
2023/07/15 04:47:22;;;;;;;3.47;2.30;;;;;;;;;;5035253;28;20244;-81
2023/07/15 04:49:48;;;;;;;3.83;2.33;;;;;;;;;;5035302;28;20180;-82
2023/07/15 04:52:14;;;;;;;4.83;2.70;;;;;;;;;;5035164;28;20230;-83
2023/07/15 04:54:40;;;;;;;6.30;2.60;;;;;;;;;;5033783;28;20481;-81
2023/07/15 04:57:07;;;;;;;4.07;2.10;;;;;;;;;;5033450;28;20638;-83
2023/07/15 04:59:33;;;;;;;3.00;1.90;;;;;;;;;;5035084;28;20171;-81
2023/07/15 05:01:59;;;;;;;3.67;2.33;;;;;;;;;;5042202;28;20776;-80
2023/07/15 05:04:25;;;;;;;3.17;2.23;;;;;;;;;;5054867;28;20182;-82
2023/07/15 05:06:52;;;;;;;4.83;2.30;;;;;;;;;;5055540;28;20169;-88
2023/07/15 05:09:19;;;;;;;3.90;2.10;;;;;;;;;;5039745;28;20421;-90
2023/07/15 05:11:44;;;;;;;5.77;2.70;;;;;;;;;;5039308;28;20418;-87
2023/07/15 05:14:11;;;;;;;4.17;2.30;;;;;;;;;;5056876;28;20566;-91
2023/07/15 05:16:37;;;;;;;3.97;2.20;;;;;;;;;;5055487;28;20168;-90
2023/07/15 05:19:03;;;;;;;3.80;2.30;;;;;;;;;;5037385;28;20861;-87
2023/07/15 05:21:29;;;;;;;4.17;2.70;;;;;;;;;;5055201;28;20457;-84
2023/07/15 05:23:56;;;;;;;5.07;2.23;;;;;;;;;;5037320;28;20426;-92
2023/07/15 05:26:21;;;;;;;4.60;1.70;;;;;;;;;;5037385;28;20416;-88
2023/07/15 05:28:48;;;;;;;3.00;2.07;;;;;;;;;;5054982;28;20423;-87
2023/07/15 05:31:14;;;;;;;2.70;2.10;;;;;;;;;;5037291;28;20452;-93
2023/07/15 05:33:44;;;;;;;3.27;1.90;;;;;;;;;;5054673;28;20502;-86
2023/07/15 05:36:10;;;;;;;3.20;2.40;;;;;;;;;;5037361;28;20188;-91
2023/07/15 05:38:42;;;;;;;6.73;2.60;;;;;;;;;;5054687;28;20407;-85
2023/07/15 05:41:07;;;;;;;3.73;2.83;;;;;;;;;;5036538;28;20181;-88
2023/07/15 05:43:33;;;;;;;2.77;2.20;;;;;;;;;;5037314;28;20441;-88
2023/07/15 05:45:59;;;;;;;4.43;2.20;;;;;;;;;;5037341;28;20263;-91
2023/07/15 05:48:28;;;;;;;4.83;2.70;;;;;;;;;;5036390;28;20446;-88
2023/07/15 05:50:54;;;;;;;4.57;2.07;;;;;;;;;;5038413;28;20348;-93
2023/07/15 05:53:20;;;;;;;3.33;2.00;;;;;;;;;;5037169;28;20410;-89
2023/07/15 05:55:46;;;;;;;4.83;2.80;;;;;;;;;;5038510;28;20178;-91
2023/07/15 05:58:12;;;;;;;2.27;1.63;;;;;;;;;;5037336;28;20900;-90
2023/07/15 06:00:39;;;;;;;3.20;2.00;;;;;;;;;;5056453;28;20411;-92
2023/07/15 06:03:11;;;;;;;4.73;2.00;;;;;;;;;;5054554;28;20411;-91
2023/07/15 06:05:40;;;;;;;2.80;1.50;;;;;;;;;;5037833;28;20411;-91
2023/07/15 06:08:06;;;;;;;3.83;2.20;;;;;;;;;;5038710;28;20965;-90
2023/07/15 06:10:32;;;;;;;5.53;1.70;;;;;;;;;;5038289;28;20418;-92
2023/07/15 06:12:58;;;;;;;3.60;2.10;;;;;;;;;;5055201;28;20409;-91
2023/07/15 06:15:24;;;;;;;3.30;1.43;;;;;;;;;;5037470;28;20793;-93
2023/07/15 06:17:50;;;;;;;3.70;1.63;;;;;;;;;;5037756;28;20467;-87
2023/07/15 06:20:18;;;;;;;3.60;1.80;;;;;;;;;;5039254;28;20431;-91
2023/07/15 06:22:44;;;;;;;2.87;1.70;;;;;;;;;;5038052;28;20511;-88
2023/07/15 06:25:11;;;;;;;4.80;1.97;;;;;;;;;;5035164;28;20451;-91
2023/07/15 06:27:37;;;;;;;3.90;1.83;;;;;;;;;;5035751;28;20187;-88
2023/07/15 06:30:04;;;;;;;4.43;1.60;;;;;;;;;;5053400;28;20415;-78
2023/07/15 06:32:41;;;;;;;3.40;1.80;;;;;;;;;;5052887;28;20442;-80
2023/07/15 06:35:08;;;;;;;5.60;2.00;;;;;;;;;;5053133;28;21014;-79
2023/07/15 06:37:35;;;;;;;4.03;2.40;;;;;;;;;;5052980;28;20407;-84
2023/07/15 06:40:01;;;;;;;4.80;1.83;;;;;;;;;;5053192;28;20446;-82
2023/07/15 06:42:27;;;;;;;4.87;2.00;;;;;;;;;;5052675;28;20411;-81
2023/07/15 06:44:53;;;;;;;2.93;2.00;;;;;;;;;;5053094;28;20423;-82
2023/07/15 06:47:19;;;;;;;3.20;2.23;;;;;;;;;;5053052;28;20173;-80
2023/07/15 06:49:45;;;;;;;3.80;1.67;;;;;;;;;;5052849;28;20183;-79
2023/07/15 06:52:11;;;;;;;3.20;1.67;;;;;;;;;;5052974;28;20184;-80
2023/07/15 06:54:37;;;;;;;3.97;1.97;;;;;;;;;;5052880;28;20218;-80
2023/07/15 06:57:03;;;;;;;3.80;2.47;;;;;;;;;;5052537;28;20654;-80
2023/07/15 06:59:29;;;;;;;3.47;1.93;;;;;;;;;;5052739;28;20420;-81
2023/07/15 07:01:55;;;;;;;3.80;1.40;;;;;;;;;;5052387;28;20427;-80
2023/07/15 07:04:20;;;;;;;1.93;1.60;;;;;;;;;;5052567;28;20459;-80
2023/07/15 07:06:46;;;;;;;4.47;1.97;;;;;;;;;;5052551;28;20219;-81
2023/07/15 07:09:12;;;;;;;3.50;2.10;;;;;;;;;;5052697;28;20594;-81
2023/07/15 07:11:38;;;;;;;2.87;1.97;;;;;;;;;;5052324;28;20581;-81
2023/07/15 07:14:04;;;;;;;3.13;1.70;;;;;;;;;;5052679;28;20205;-79
2023/07/15 07:16:30;;;;;;;2.80;2.30;;;;;;;;;;5052703;28;20178;-81
2023/07/15 07:18:56;;;;;;;3.10;2.20;;;;;;;;;;5052568;28;20271;-80
2023/07/15 07:21:22;;;;;;;4.90;2.00;;;;;;;;;;5052528;28;20695;-81
2023/07/15 07:23:52;;;;;;;3.93;1.60;;;;;;;;;;5051362;28;20178;-81
2023/07/15 07:26:18;;;;;;;2.70;1.67;;;;;;;;;;5052263;28;20177;-81
2023/07/15 07:28:44;;;;;;;3.37;1.93;;;;;;;;;;5052599;28;20416;-82
2023/07/15 07:31:11;;;;;;;4.13;1.80;;;;;;;;;;5052510;28;20204;-80
2023/07/15 07:33:38;;;;;;;2.73;1.80;;;;;;;;;;5052427;28;20605;-83
2023/07/15 07:36:04;;;;;;;2.90;1.93;;;;;;;;;;5052417;28;20412;-81
2023/07/15 07:38:30;;;;;;;3.97;1.80;;;;;;;;;;5052516;28;20415;-83
2023/07/15 07:41:03;;;;;;;4.57;2.27;;;;;;;;;;5052138;28;20436;-81
2023/07/15 07:43:29;;;;;;;3.63;1.90;;;;;;;;;;5052448;28;20392;-81
2023/07/15 07:45:54;;;;;;;3.00;1.70;;;;;;;;;;5052337;28;20770;-82
2023/07/15 07:48:20;;;;;;;4.17;1.40;;;;;;;;;;5052461;28;20173;-81
2023/07/15 07:50:46;;;;;;;2.93;2.07;;;;;;;;;;5052411;28;20181;-81
2023/07/15 07:53:12;;;;;;;2.97;1.20;;;;;;;;;;5052403;28;20174;-81
2023/07/15 07:55:39;;;;;;;4.57;1.47;;;;;;;;;;5052029;28;20220;-81
2023/07/15 07:58:04;;;;;;;2.90;1.10;;;;;;;;;;5052173;28;20179;-81
2023/07/15 08:00:30;;;;;;;2.53;1.90;;;;;;;;;;5052307;28;20948;-82
2023/07/15 08:02:56;;;;;;;4.50;1.37;;;;;;;;;;5052314;28;20170;-87
2023/07/15 08:05:22;;;;;;;1.63;0.90;;;;;;;;;;5052324;28;20182;-82
2023/07/15 08:07:48;;;;;;;2.77;1.63;;;;;;;;;;5052354;28;20177;-82
2023/07/15 08:10:14;;;;;;;2.93;1.60;;;;;;;;;;5050631;28;20180;-81
2023/07/15 08:12:40;;;;;;;3.33;1.60;;;;;;;;;;5056070;28;20299;-81
2023/07/15 08:15:06;;;;;;;3.00;1.63;;;;;;;;;;5056273;28;20267;-82
2023/07/15 08:17:32;;;;;;;1.90;1.23;;;;;;;;;;5055663;28;20224;-81
2023/07/15 08:19:58;;;;;;;3.27;1.80;;;;;;;;;;5055792;28;20416;-81
2023/07/15 08:22:24;;;;;;;5.93;2.90;;;;;;;;;;5055704;28;20642;-81
2023/07/15 08:24:50;;;;;;;3.83;2.07;;;;;;;;;;5054160;28;20170;-80
2023/07/15 08:27:16;;;;;;;3.57;2.00;;;;;;;;;;5055616;28;20415;-81
2023/07/15 08:29:41;;;;;;;3.60;1.60;;;;;;;;;;5055498;28;20919;-81
2023/07/15 08:32:07;;;;;;;4.63;1.73;;;;;;;;;;5054276;28;20231;-82
2023/07/15 08:34:33;;;;;;;2.70;1.47;;;;;;;;;;5055412;28;20216;-84
2023/07/15 08:36:59;;;;;;;2.73;1.70;;;;;;;;;;5055523;28;20405;-86
2023/07/15 08:39:25;;;;;;;2.20;1.57;;;;;;;;;;5055421;28;20919;-81
2023/07/15 08:41:53;;;;;;;2.23;2.03;;;;;;;;;;5054964;28;20623;-82
2023/07/15 08:44:19;;;;;;;2.50;1.30;;;;;;;;;;5054958;28;20197;-82
2023/07/15 08:46:45;;;;;;;1.80;1.20;;;;;;;;;;5055179;28;20461;-83
2023/07/15 08:49:12;;;;;;;2.93;1.43;;;;;;;;;;5055280;28;20409;-82
2023/07/15 08:51:41;;;;;;;2.50;1.30;;;;;;;;;;5047991;28;20525;-81
2023/07/15 08:54:08;;;;;;;5.60;1.67;;;;;;;;;;5049804;28;20468;-82
2023/07/15 08:56:34;;;;;;;1.93;1.43;;;;;;;;;;5054105;28;20412;-81
2023/07/15 08:59:01;;;;;;;1.80;1.37;;;;;;;;;;5054523;28;20429;-81
2023/07/15 09:01:27;;;;;;;3.27;1.77;;;;;;;;;;5054460;28;20428;-82
2023/07/15 09:03:53;;;;;;;2.00;1.13;;;;;;;;;;5054426;28;20428;-81
2023/07/15 09:06:19;;;;;;;2.37;1.20;;;;;;;;;;5054240;28;20161;-81
2023/07/15 09:08:50;;;;;;;1.83;1.20;;;;;;;;;;5054258;28;20427;-82
2023/07/15 09:11:16;;;;;;;2.03;1.20;;;;;;;;;;5053939;28;20688;-80
2023/07/15 09:13:43;;;;;;;3.73;1.90;;;;;;;;;;5054069;28;20471;-81
2023/07/15 09:16:09;;;;;;;2.70;1.70;;;;;;;;;;5054133;28;20555;-80
2023/07/15 09:18:40;;;;;;;1.67;1.57;;;;;;;;;;5053832;28;20467;-81
2023/07/15 09:21:16;;;;;;;2.87;1.50;;;;;;;;;;5054110;28;20176;-80
2023/07/15 09:23:44;;;;;;;3.30;1.33;;;;;;;;;;5053624;28;20893;-80
2023/07/15 09:26:11;;;;;;;3.17;1.67;;;;;;;;;;5032624;28;20900;-80
2023/07/15 09:28:37;;;;;;;3.30;1.60;;;;;;;;;;5035583;28;20420;-79
2023/07/15 09:31:04;;;;;;;1.10;1.00;;;;;;;;;;5053600;28;20436;-80
2023/07/15 09:33:30;;;;;;;3.73;1.67;;;;;;;;;;5032862;28;20964;-80
2023/07/15 09:35:56;;;;;;;3.20;1.67;;;;;;;;;;5053477;28;20448;-80
2023/07/15 09:38:23;;;;;;;3.80;1.53;;;;;;;;;;5052459;28;20535;-79
2023/07/15 09:40:49;;;;;;;1.70;1.20;;;;;;;;;;5048667;28;20443;-84
2023/07/15 09:43:16;;;;;;;3.43;1.67;;;;;;;;;;5053324;28;20761;-80
2023/07/15 09:45:42;;;;;;;3.00;1.53;;;;;;;;;;5053211;28;20169;-80
2023/07/15 09:48:08;;;;;;;2.20;0.97;;;;;;;;;;5048204;28;20439;-80
2023/07/15 09:50:35;;;;;;;2.13;1.80;;;;;;;;;;5053219;28;20177;-81
2023/07/15 09:53:01;;;;;;;1.03;0.87;;;;;;;;;;5053154;28;20502;-81
2023/07/15 09:55:28;;;;;;;1.90;1.30;;;;;;;;;;5052467;28;20531;-81
2023/07/15 09:57:57;;;;;;;2.17;1.43;;;;;;;;;;5052990;28;20411;-81
2023/07/15 10:00:24;;;;;;;4.30;1.30;;;;;;;;;;5048790;28;20432;-84
2023/07/15 10:02:55;;;;;;;1.20;0.67;;;;;;;;;;5044249;28;20439;-81
2023/07/15 10:05:22;;;;;;;4.47;1.10;;;;;;;;;;5053376;28;20769;-81
2023/07/15 10:07:48;;;;;;;2.33;1.67;;;;;;;;;;5053345;28;20424;-82
2023/07/15 10:10:14;;;;;;;2.67;1.13;;;;;;;;;;5052978;28;20470;-81
2023/07/15 10:12:40;;;;;;;1.80;0.90;;;;;;;;;;5053276;28;20416;-81
2023/07/15 10:15:07;;;;;;;2.40;1.40;;;;;;;;;;5053181;28;20213;-81
2023/07/15 10:17:34;;;;;;;1.50;0.90;;;;;;;;;;5052949;28;20468;-80
2023/07/15 10:20:12;;;;;;;1.40;0.63;;;;;;;;;;5053151;28;20416;-82
2023/07/15 10:22:39;;;;;;;1.70;1.40;;;;;;;;;;5053177;28;21098;-82
2023/07/15 10:25:08;;;;;;;5.03;0.97;;;;;;;;;;5052680;28;20408;-80
2023/07/15 10:27:35;;;;;;;1.80;1.30;;;;;;;;;;5052978;28;20415;-82
2023/07/15 10:30:21;;;;;;;1.00;0.90;;;;;;;;;;5035248;28;20412;-83
2023/07/15 10:33:07;;;;;;;1.80;1.00;;;;;;;;;;5052959;28;20409;-82
2023/07/15 10:35:40;;;;;;;1.57;1.30;;;;;;;;;;5052436;28;21117;-82
2023/07/15 10:38:21;;;;;;;2.23;1.03;;;;;;;;;;5051850;28;20416;-84
2023/07/15 10:40:47;;;;;;;1.63;0.90;;;;;;;;;;5032667;28;20486;-83
2023/07/15 10:43:17;;;;;;;1.10;1.00;;;;;;;;;;5015165;28;20416;-82
2023/07/15 10:45:43;;;;;;;2.17;0.73;;;;;;;;;;5040183;28;20207;-82
2023/07/15 10:48:09;;;;;;;1.70;0.90;;;;;;;;;;5052655;28;20483;-84
2023/07/15 10:50:36;;;;;;;3.37;0.80;;;;;;;;;;5052817;28;20177;-82
2023/07/15 10:53:21;;;;;;;3.43;1.07;;;;;;;;;;5052742;28;20415;-81
2023/07/15 10:55:54;;;;;;;1.50;1.10;;;;;;;;;;5051886;28;20485;-83
2023/07/15 10:58:20;;;;;;;1.97;0.73;;;;;;;;;;5052676;28;20935;-82
2023/07/15 11:00:46;;;;;;;2.07;1.17;;;;;;;;;;5052679;28;20408;-81
2023/07/15 11:03:12;;;;;;;1.50;1.10;;;;;;;;;;5051412;28;20404;-83
2023/07/15 11:05:38;;;;;;;2.77;1.10;;;;;;;;;;5034403;28;20884;-83
2023/07/15 11:08:05;;;;;;;2.50;1.40;;;;;;;;;;5052309;28;20271;-83
2023/07/15 11:10:34;;;;;;;1.53;0.93;;;;;;;;;;5051809;28;20419;-85
2023/07/15 11:13:18;;;;;;;1.30;1.20;;;;;;;;;;5052380;28;20404;-82
2023/07/15 11:15:46;;;;;;;2.50;1.00;;;;;;;;;;5052411;28;20438;-82
2023/07/15 11:18:19;;;;;;;1.60;1.03;;;;;;;;;;5052220;28;20460;-81
2023/07/15 11:20:46;;;;;;;3.10;1.20;;;;;;;;;;5052216;28;20872;-83
2023/07/15 11:23:12;;;;;;;2.67;1.80;;;;;;;;;;5052369;28;20392;-82
2023/07/15 11:25:38;;;;;;;2.40;1.47;;;;;;;;;;5052087;28;20476;-82
2023/07/15 11:28:05;;;;;;;1.13;0.93;;;;;;;;;;5052003;28;20758;-84
2023/07/15 11:30:43;;;;;;;2.10;0.63;;;;;;;;;;5052225;28;20420;-86
2023/07/15 11:33:10;;;;;;;2.50;0.60;;;;;;;;;;5052128;28;20411;-83
2023/07/15 11:35:37;;;;;;;4.83;2.13;;;;;;;;;;5052195;28;20467;-80
2023/07/15 11:38:15;;;;;;;2.57;1.43;;;;;;;;;;5052280;28;20439;-80
2023/07/15 11:40:54;;;;;;;3.53;0.97;;;;;;;;;;5051713;28;20431;-81
2023/07/15 11:43:21;;;;;;;2.27;1.03;;;;;;;;;;5050714;28;20746;-81
2023/07/15 11:45:47;;;;;;;3.50;1.17;;;;;;;;;;5049640;28;20434;-83
2023/07/15 11:48:18;;;;;;;1.50;0.80;;;;;;;;;;5056007;28;20392;-83
2023/07/15 11:50:44;;;;;;;1.40;1.10;;;;;;;;;;5055915;28;20419;-83
2023/07/15 11:53:26;;;;;;;2.50;0.97;;;;;;;;;;5055984;28;20872;-83
2023/07/15 11:55:52;;;;;;;2.23;0.87;;;;;;;;;;5055409;28;20189;-82
2023/07/15 11:58:37;;;;;;;3.90;1.10;;;;;;;;;;5055682;28;20412;-83
2023/07/15 12:01:04;;;;;;;1.90;0.83;;;;;;;;;;5055698;28;20499;-81
2023/07/15 12:03:30;;;;;;;3.47;1.30;;;;;;;;;;5055710;28;20400;-80
2023/07/15 12:05:56;;;;;;;3.43;1.17;;;;;;;;;;5055773;28;20420;-83
2023/07/15 12:08:22;;;;;;;1.60;1.33;;;;;;;;;;5049056;28;20461;-83
2023/07/15 12:10:52;;;;;;;2.93;1.37;;;;;;;;;;5035282;28;20412;-82
2023/07/15 12:13:18;;;;;;;2.47;1.40;;;;;;;;;;5035549;28;20479;-81
2023/07/15 12:15:44;;;;;;;3.23;1.73;;;;;;;;;;5035486;28;20902;-83
2023/07/15 12:18:10;;;;;;;1.97;1.70;;;;;;;;;;5017499;28;20495;-83
2023/07/15 12:20:35;;;;;;;2.80;1.87;;;;;;;;;;5035582;28;20181;-82
2023/07/15 12:23:01;;;;;;;3.50;1.23;;;;;;;;;;5035457;28;20177;-83
2023/07/15 12:25:27;;;;;;;3.00;1.23;;;;;;;;;;5035136;28;20193;-82
2023/07/15 12:27:53;;;;;;;2.57;1.13;;;;;;;;;;5035499;28;20236;-80
2023/07/15 12:30:19;;;;;;;1.97;0.83;;;;;;;;;;5035265;28;20197;-81
2023/07/15 12:32:45;;;;;;;2.40;1.27;;;;;;;;;;5035214;28;20253;-83
2023/07/15 12:35:11;;;;;;;1.30;0.90;;;;;;;;;;5035132;28;20676;-82
2023/07/15 12:37:38;;;;;;;4.23;1.90;;;;;;;;;;5035263;28;20223;-80
2023/07/15 12:40:05;;;;;;;3.93;2.03;;;;;;;;;;5034800;28;20592;-85
2023/07/15 12:42:31;;;;;;;3.17;0.93;;;;;;;;;;5035125;28;20750;-83
2023/07/15 12:44:57;;;;;;;2.60;1.20;;;;;;;;;;5034914;28;20424;-83
2023/07/15 12:47:23;;;;;;;1.93;1.13;;;;;;;;;;5035019;28;20177;-80
2023/07/15 12:49:49;;;;;;;1.63;1.33;;;;;;;;;;5034932;28;20557;-80
2023/07/15 12:52:15;;;;;;;1.70;1.10;;;;;;;;;;5034901;28;20504;-82
2023/07/15 12:54:41;;;;;;;3.97;1.50;;;;;;;;;;5034455;28;20473;-82
2023/07/15 12:57:07;;;;;;;1.60;0.93;;;;;;;;;;5034387;28;20421;-81
2023/07/15 12:59:33;;;;;;;3.27;1.70;;;;;;;;;;5034724;28;20177;-81
2023/07/15 13:02:00;;;;;;;4.23;1.67;;;;;;;;;;5034629;28;20177;-81
2023/07/15 13:04:30;;;;;;;2.47;1.40;;;;;;;;;;5034497;28;20453;-81
2023/07/15 13:06:56;;;;;;;2.87;1.33;;;;;;;;;;5034542;28;20421;-82
2023/07/15 13:09:22;;;;;;;4.10;1.77;;;;;;;;;;5016374;28;20480;-80
2023/07/15 13:11:48;;;;;;;2.63;1.00;;;;;;;;;;5034415;28;20585;-82
2023/07/15 13:14:14;;;;;;;1.73;1.60;;;;;;;;;;5016642;28;20476;-79
2023/07/15 13:16:40;;;;;;;2.07;1.50;;;;;;;;;;5034405;28;20240;-81
2023/07/15 13:19:06;;;;;;;2.53;1.20;;;;;;;;;;5034183;28;20226;-81
2023/07/15 13:21:32;;;;;;;2.23;1.67;;;;;;;;;;5042530;28;20412;-80
2023/07/15 13:23:58;;;;;;;2.80;1.40;;;;;;;;;;5016221;28;20185;-79
2023/07/15 13:26:24;;;;;;;2.80;1.67;;;;;;;;;;5034245;28;20208;-80
2023/07/15 13:28:50;;;;;;;1.90;1.80;;;;;;;;;;5033927;28;20640;-80
2023/07/15 13:31:16;;;;;;;3.60;1.30;;;;;;;;;;5034299;28;20509;-81
2023/07/15 13:33:42;;;;;;;3.47;1.27;;;;;;;;;;5034165;28;20461;-83
2023/07/15 13:36:09;;;;;;;2.03;1.00;;;;;;;;;;5034069;28;20177;-81
2023/07/15 13:38:35;;;;;;;1.87;1.00;;;;;;;;;;5034104;28;20178;-79
2023/07/15 13:41:00;;;;;;;1.43;0.77;;;;;;;;;;5033645;28;20415;-78
2023/07/15 13:43:26;;;;;;;1.30;0.87;;;;;;;;;;5033922;28;20649;-79
2023/07/15 13:45:52;;;;;;;3.83;0.73;;;;;;;;;;5034076;28;20622;-79
2023/07/15 13:48:18;;;;;;;1.10;0.70;;;;;;;;;;5046424;28;20432;-79
2023/07/15 13:50:44;;;;;;;1.50;0.57;;;;;;;;;;5053128;28;20189;-81
2023/07/15 13:53:10;;;;;;;0.83;0.30;;;;;;;;;;5053629;28;20228;-78
2023/07/15 13:55:36;;;;;;;1.40;0.70;;;;;;;;;;5053132;28;20506;-80
2023/07/15 13:58:03;;;;;;;1.50;0.63;;;;;;;;;;5035846;28;20611;-80
2023/07/15 14:00:29;;;;;;;1.53;0.50;;;;;;;;;;5053497;28;20215;-80
2023/07/15 14:03:15;;;;;;;0.90;0.40;;;;;;;;;;5053331;28;20451;-79
2023/07/15 14:05:41;;;;;;;2.07;0.43;;;;;;;;;;5053293;28;20217;-82
2023/07/15 14:08:07;;;;;;;0.70;0.20;;;;;;;;;;5052831;28;20467;-79
2023/07/15 14:10:33;;;;;;;0.87;0.50;;;;;;;;;;5049187;28;20181;-81
2023/07/15 14:12:59;;;;;;;0.70;0.30;;;;;;;;;;5051797;28;20189;-81
2023/07/15 14:15:24;;;;;;;0.93;0.33;;;;;;;;;;5035164;28;20571;-78
2023/07/15 14:17:51;;;;;;;1.50;0.40;;;;;;;;;;5050522;28;20217;-78
2023/07/15 14:20:16;;;;;;;1.67;0.47;;;;;;;;;;5053036;28;20867;-81
2023/07/15 14:22:42;;;;;;;0.83;0.37;;;;;;;;;;5052520;28;20405;-81
2023/07/15 14:25:08;;;;;;;1.10;0.50;;;;;;;;;;5052656;28;20181;-80
2023/07/15 14:27:35;;;;;;;0.77;0.30;;;;;;;;;;5051950;28;20178;-79
2023/07/15 14:30:00;;;;;;;1.10;0.30;;;;;;;;;;5050051;28;20440;-80
2023/07/15 14:32:26;;;;;;;1.37;0.30;;;;;;;;;;5052425;28;20668;-81
2023/07/15 14:34:52;;;;;;;0.80;0.30;;;;;;;;;;5052618;28;20975;-78
2023/07/15 14:37:18;;;;;;;0.60;0.20;;;;;;;;;;5048023;28;20237;-79
2023/07/15 14:39:44;;;;;;;0.70;0.23;;;;;;;;;;5051538;28;20430;-80
2023/07/15 14:42:13;;;;;;;0.80;0.40;;;;;;;;;;5052357;28;20173;-80